Accueil
METAR-TAF:

METAR-TAF

Aéroports :

Euro, Pays-Bas

Plate-forme pétrolière

latitude: 51-59-52N, longitude: 3-16-30E, altitude: 18 m

Observation

Le bulletin a été fait il y a 39 minutes, à 03:25 UTC
Vent 25 kt de est/nord-est
Température 0°C
Humidité 55%
Pression 1027 hPa
Visibilité 10 km ou plus

METAR: EHSA 250325Z AUTO 07025KT 9999 ///////// M00/M08 Q1027 W05/H17

Heure: 05:04 (04:04 UTC)


TAF: absent

Observations et prévisions météorologiques de plus de 4000 aéroports (messages METAR et TAF).

Les stations disponibles sont représentées par des disques jaunes et rouges sur la carte.

Passer la souris dessus pour voir le nom de la station.

Cliquer dessus pour voir les observations et prévisions météorologiques.

Pour changer de carte: cliquez sur les boutons verts avec une croix noire pour zoomer, sur le bouton vert avec un tiret pour effectuer un zoom arrière, ou sur les flèches vertes pour les cartes adjacentes.


METAR-TAF: